createdAt,value
2019-02-02T00:06:35.580Z,3.35
2019-02-02T00:11:57.779Z,3.34
2019-02-02T00:17:19.955Z,2.48
2019-02-02T00:22:42.145Z,2.85
2019-02-02T00:28:25.716Z,2.94
2019-02-02T00:33:47.884Z,1.15
2019-02-02T00:39:10.159Z,2.95
2019-02-02T00:44:32.342Z,3.05
2019-02-02T00:49:54.548Z,1.44
2019-02-02T00:55:16.955Z,3.11
2019-02-02T01:00:39.129Z,1.81
2019-02-02T01:06:01.319Z,3.02
2019-02-02T01:11:23.498Z,3.01
2019-02-02T01:16:39.010Z,3.01
2019-02-02T01:22:01.258Z,2.19
2019-02-02T01:27:23.441Z,2.93
2019-02-02T01:32:45.628Z,3.09
2019-02-02T01:38:07.958Z,3.14
2019-02-02T01:43:30.139Z,2.36
2019-02-02T01:48:52.330Z,3.17
2019-02-02T01:54:14.497Z,2.84
2019-02-02T01:59:36.697Z,2.94
2019-02-02T02:04:39.773Z,3.07
2019-02-02T02:10:02.754Z,2.85
2019-02-02T02:15:18.782Z,2.81
2019-02-02T02:20:41.228Z,2.89
2019-02-02T02:26:03.381Z,2.84
2019-02-02T02:31:25.563Z,2.91
2019-02-02T02:36:47.766Z,3.05
2019-02-02T02:42:09.940Z,3.14
2019-02-02T02:47:12.605Z,3.08
2019-02-02T02:52:34.795Z,3.08
2019-02-02T02:57:56.976Z,3.06
2019-02-02T03:02:59.645Z,3.08
2019-02-02T03:08:21.819Z,3.06
2019-02-02T03:13:36.699Z,1.14
2019-02-02T03:18:58.885Z,2.63
2019-02-02T03:24:21.030Z,2.92
2019-02-02T03:29:43.226Z,2.86
2019-02-02T03:35:14.440Z,2.88
2019-02-02T03:40:36.623Z,1.28
2019-02-02T03:45:58.843Z,2.85
2019-02-02T03:51:21.069Z,2.69
2019-02-02T03:56:43.246Z,2.60
2019-02-02T04:02:05.414Z,-0.25
2019-02-02T04:07:27.585Z,2.35
2019-02-02T04:12:43.136Z,2.39
2019-02-02T04:17:45.944Z,2.39
2019-02-02T04:23:08.123Z,2.45
2019-02-02T04:28:10.858Z,1.66
2019-02-02T04:33:33.048Z,2.66
2019-02-02T04:38:55.243Z,0.26
2019-02-02T04:44:17.390Z,2.72
2019-02-02T04:49:39.553Z,2.81
2019-02-02T04:55:01.733Z,2.92
2019-02-02T05:00:24.929Z,2.86
2019-02-02T05:05:47.225Z,2.81
2019-02-02T05:11:09.403Z,2.02
2019-02-02T05:16:24.741Z,2.81
2019-02-02T05:21:46.937Z,2.83
2019-02-02T05:27:09.388Z,2.91
2019-02-02T05:32:31.614Z,2.72
2019-02-02T05:37:54.029Z,2.88
2019-02-02T05:43:16.262Z,2.21
2019-02-02T05:48:19.040Z,3.08
2019-02-02T05:53:41.305Z,3.13
2019-02-02T05:59:03.534Z,2.39
2019-02-02T06:04:26.599Z,3.21
2019-02-02T06:09:49.219Z,3.15
2019-02-02T06:14:51.902Z,3.10
2019-02-02T06:19:55.311Z,3.00
2019-02-02T06:25:17.572Z,2.96
2019-02-02T06:30:39.720Z,2.99
2019-02-02T06:35:44.664Z,2.86
2019-02-02T06:40:47.434Z,2.90
2019-02-02T06:45:50.092Z,3.00
2019-02-02T06:50:52.769Z,3.02
2019-02-02T06:55:55.440Z,3.08
2019-02-02T07:00:58.138Z,3.20
2019-02-02T07:06:20.322Z,3.27
2019-02-02T07:11:42.504Z,3.28
2019-02-02T07:16:57.813Z,3.20
2019-02-02T07:22:19.982Z,2.92
2019-02-02T07:27:42.164Z,3.13
2019-02-02T07:33:04.336Z,3.05
2019-02-02T07:38:26.505Z,3.14
2019-02-02T07:43:48.702Z,3.22
2019-02-02T07:49:10.892Z,3.08
2019-02-02T07:54:33.308Z,3.12
2019-02-02T07:59:56.741Z,2.92
2019-02-02T08:05:18.980Z,2.92
2019-02-02T08:10:41.207Z,3.29
2019-02-02T08:15:56.806Z,3.27
2019-02-02T08:21:00.105Z,3.19
2019-02-02T08:26:22.280Z,3.36
2019-02-02T08:31:44.834Z,3.41
2019-02-02T08:42:58.593Z,3.30
2019-02-02T08:48:21.451Z,2.56
2019-02-02T08:53:44.340Z,2.43
2019-02-02T08:59:08.161Z,3.57
2019-02-02T09:04:30.322Z,3.85
2019-02-02T09:09:52.651Z,4.10
2019-02-02T09:15:09.434Z,4.32
2019-02-02T09:20:32.671Z,4.32
2019-02-02T09:25:55.240Z,4.39
2019-02-02T09:31:18.257Z,4.39
2019-02-02T09:36:41.996Z,4.16
2019-02-02T09:41:45.177Z,4.02
2019-02-02T09:47:20.209Z,4.05
2019-02-02T09:52:43.132Z,3.84
2019-02-02T09:58:09.060Z,4.10
2019-02-02T10:03:11.969Z,3.91
2019-02-02T10:08:15.263Z,3.76
2019-02-02T10:13:31.250Z,3.94
2019-02-02T10:18:54.600Z,3.98
2019-02-02T10:24:16.858Z,4.04
2019-02-02T10:29:39.026Z,4.27
2019-02-02T10:34:41.712Z,4.33
2019-02-02T10:40:05.304Z,4.28
2019-02-02T10:45:27.497Z,4.47
2019-02-02T10:50:49.665Z,4.49
2019-02-02T10:56:11.829Z,3.46
2019-02-02T11:01:34.071Z,4.31
2019-02-02T11:06:56.338Z,4.10
2019-02-02T11:11:59.158Z,3.91
2019-02-02T11:17:02.117Z,3.88
2019-02-02T11:22:04.867Z,3.80
2019-02-02T11:27:07.535Z,3.93
2019-02-02T11:32:10.336Z,4.08
2019-02-02T11:37:13.343Z,4.24
2019-02-02T11:42:16.008Z,4.37
2019-02-02T11:47:18.672Z,4.45
2019-02-02T11:52:23.378Z,4.45
2019-02-02T11:57:26.214Z,4.51
2019-02-02T12:02:28.884Z,4.55
2019-02-02T12:07:31.552Z,4.67
2019-02-02T12:12:34.408Z,4.65
2019-02-02T12:17:37.068Z,4.60
2019-02-02T12:22:39.747Z,4.56
2019-02-02T12:27:42.776Z,4.41
2019-02-02T12:32:45.658Z,4.38
2019-02-02T12:37:48.341Z,4.41
2019-02-02T12:42:51.219Z,4.58
2019-02-02T12:47:54.320Z,4.66
2019-02-02T12:52:59.702Z,4.60
2019-02-02T12:58:04.107Z,4.64
2019-02-02T13:03:07.519Z,4.67
2019-02-02T13:08:10.282Z,4.84
2019-02-02T13:13:14.516Z,5.03
2019-02-02T13:18:19.018Z,5.18
2019-02-02T13:23:41.168Z,4.97
2019-02-02T13:29:03.541Z,4.97
2019-02-02T13:34:25.734Z,3.42
2019-02-02T13:39:47.923Z,5.19
2019-02-02T13:45:10.635Z,5.16
2019-02-02T13:50:32.810Z,5.11
2019-02-02T13:55:35.473Z,5.11
2019-02-02T14:00:38.151Z,5.18
2019-02-02T14:05:40.826Z,5.37
2019-02-02T14:10:43.501Z,5.42
2019-02-02T14:15:46.172Z,5.40
2019-02-02T14:20:48.833Z,5.41
2019-02-02T14:25:51.484Z,5.21
2019-02-02T14:31:13.648Z,5.28
2019-02-02T14:36:35.832Z,3.43
2019-02-02T14:41:38.523Z,4.42
2019-02-02T14:46:41.181Z,5.21
2019-02-02T14:52:03.474Z,5.21
2019-02-02T14:57:25.660Z,5.20
2019-02-02T15:02:47.874Z,5.21
2019-02-02T15:08:10.031Z,5.15
2019-02-02T15:13:25.807Z,5.06
2019-02-02T15:18:48.016Z,5.14
2019-02-02T15:24:10.164Z,5.19
2019-02-02T15:29:32.333Z,3.32
2019-02-02T15:34:54.494Z,5.13
2019-02-02T15:40:16.908Z,5.06
2019-02-02T15:45:39.081Z,4.98
2019-02-02T15:51:01.243Z,4.95
2019-02-02T15:56:23.407Z,3.49
2019-02-02T16:01:45.591Z,4.92
2019-02-02T16:07:07.762Z,4.86
2019-02-02T16:12:29.967Z,3.23
2019-02-02T16:17:52.134Z,4.80
2019-02-02T16:23:14.298Z,2.11
2019-02-02T16:28:16.966Z,4.85
2019-02-02T16:33:39.152Z,4.85
2019-02-02T16:39:01.328Z,4.86
2019-02-02T16:44:23.498Z,4.83
2019-02-02T16:49:45.665Z,4.80
2019-02-02T16:54:48.326Z,4.73
2019-02-02T17:00:34.105Z,4.85
2019-02-02T17:05:56.295Z,4.85
2019-02-02T17:11:18.474Z,4.81
2019-02-02T17:16:21.185Z,4.90
2019-02-02T17:21:23.856Z,4.84
2019-02-02T17:26:26.675Z,4.82
2019-02-02T17:31:29.425Z,4.76
2019-02-02T17:36:32.102Z,4.85
2019-02-02T17:41:34.768Z,4.99
2019-02-02T17:46:56.973Z,4.88
2019-02-02T17:51:59.642Z,4.97
2019-02-02T17:57:02.324Z,4.99
2019-02-02T18:02:24.503Z,4.93
2019-02-02T18:07:46.677Z,5.02
2019-02-02T18:13:02.089Z,3.41
2019-02-02T18:18:24.237Z,4.98
2019-02-02T18:23:46.413Z,5.05
2019-02-02T18:29:08.602Z,4.91
2019-02-02T18:34:30.773Z,2.77
2019-02-02T18:39:52.937Z,3.44
2019-02-02T18:45:18.051Z,2.55
2019-02-02T18:50:40.227Z,5.06
2019-02-02T18:56:06.963Z,5.00
2019-02-02T19:01:29.148Z,4.88
2019-02-02T19:06:51.318Z,3.40
2019-02-02T19:12:13.501Z,2.93
2019-02-02T19:17:16.185Z,4.96
2019-02-02T19:22:18.855Z,4.89
2019-02-02T19:27:21.614Z,4.80
2019-02-02T19:32:24.294Z,4.74
2019-02-02T19:37:26.975Z,4.81
2019-02-02T19:42:31.416Z,4.68
2019-02-02T19:47:34.667Z,4.69
2019-02-02T19:52:40.195Z,4.53
2019-02-02T19:57:42.153Z,4.55
2019-02-02T20:02:44.863Z,4.50
2019-02-02T20:07:47.659Z,4.62
2019-02-02T20:12:50.397Z,4.59
2019-02-02T20:17:53.074Z,4.54
2019-02-02T20:22:55.941Z,4.52
2019-02-02T20:28:18.122Z,4.49
2019-02-02T20:33:40.443Z,2.36
2019-02-02T20:38:43.089Z,4.30
2019-02-02T20:44:05.389Z,4.25
2019-02-02T20:49:27.557Z,4.14
2019-02-02T20:54:30.221Z,4.09
2019-02-02T20:59:52.391Z,3.98
2019-02-02T21:05:14.880Z,3.95
2019-02-02T21:10:37.064Z,4.02
2019-02-02T21:15:52.846Z,1.89
2019-02-02T21:21:15.039Z,4.24
2019-02-02T21:26:17.716Z,4.14
2019-02-02T21:31:39.907Z,4.15
2019-02-02T21:37:02.076Z,4.17
2019-02-02T21:42:24.242Z,4.14
2019-02-02T21:47:46.483Z,4.10
2019-02-02T21:53:08.652Z,4.06
2019-02-02T21:58:30.822Z,4.18
2019-02-02T22:03:53.010Z,4.17
2019-02-02T22:08:55.887Z,4.10
2019-02-02T22:14:11.404Z,4.07
2019-02-02T22:19:33.578Z,4.07
2019-02-02T22:24:57.646Z,4.00
2019-02-02T22:30:24.904Z,2.38
2019-02-02T22:35:47.095Z,4.17
2019-02-02T22:41:09.273Z,2.66
2019-02-02T22:46:31.843Z,4.27
2019-02-02T22:51:54.038Z,4.28
2019-02-02T22:57:16.229Z,1.93
2019-02-02T23:02:21.403Z,4.36
2019-02-02T23:08:22.568Z,4.31
2019-02-02T23:13:57.882Z,4.34
2019-02-02T23:19:20.061Z,4.33
2019-02-02T23:24:42.234Z,4.34
2019-02-02T23:35:55.245Z,4.38
2019-02-02T23:41:17.428Z,4.37
2019-02-02T23:46:39.583Z,4.42
2019-02-02T23:52:01.749Z,4.46
2019-02-02T23:57:23.930Z,3.49
